Latest Weather Observations for Tuggeranong

IDN60901

Issued at 11:01 pm EST Tuesday 21 April 2015 (issued every 10 minutes, with the page automatically refreshed every 10 minutes)

About weather observations | Map of Canberra area stations | Latest observations for Canberra area | Other Formats
Station Details ID: 070339 Name: TUGGERANONG (ISABELLA PLAINS) AWS Lat: -35.42 Lon: 149.09 Height: 586.7 m
Data from the previous 72 hours. | See also: Recent months at Tuggeranong
Date/Time
EST
Tmp

°C
App
Tmp
°C
Dew
Point
°C
Rel
Hum
%
Delta-T

°C
Wind Press
QNH
hPa
Press
MSL
hPa
Rain
since
9 am
mm
Dir
 
Spd
km/h
Gust
km/h
Spd
kts
Gust
kts
21/11:00pm 10.2 3.8 7.1 81 1.5 SSE 30 48 16 26 1022.0 1021.1 0.0
21/10:45pm 10.0 4.1 7.3 83 1.3 SSE 28 46 15 25 1022.1 1021.2 0.0
21/10:30pm 10.1 4.8 7.0 81 1.5 S 24 52 13 28 1022.4 1021.5 0.0
21/10:00pm 10.4 5.4 6.4 76 1.9 SSE 22 37 12 20 1023.1 1022.2 0.0
21/09:30pm 10.4 5.3 6.0 74 2.1 SSE 22 37 12 20 1023.0 1022.1 0.0
21/09:00pm 10.3 4.8 5.7 73 2.2 S 24 41 13 22 1022.9 1022.0 0.0
21/08:47pm 10.1 3.8 5.7 74 2.1 SSE 28 48 15 26 1023.1 1022.2 0.0
21/08:30pm 10.3 4.8 5.7 73 2.2 S 24 43 13 23 1023.4 1022.5 0.0
21/08:11pm 10.7 4.4 5.5 70 2.5 S 28 50 15 27 1023.4 1022.5 0.0
21/08:00pm 10.5 4.5 5.5 71 2.4 S 26 46 14 25 1023.6 1022.7 0.0
21/07:30pm 10.6 4.7 5.6 71 2.4 S 26 44 14 24 1024.0 1023.2 0.0
21/07:00pm 11.0 6.1 5.1 67 2.8 S 20 33 11 18 1024.1 1023.3 0.0
21/06:30pm 10.9 6.0 5.0 67 2.8 SSE 20 39 11 21 1024.0 1023.2 0.0
21/06:04pm 11.1 4.7 5.0 66 2.9 SSE 28 48 15 26 1024.0 1023.2 0.0
21/05:30pm 11.0 4.5 4.9 66 2.9 S 28 43 15 23 1023.9 1023.0 0.0
21/05:00pm 11.6 6.5 4.3 61 3.4 SSE 20 39 11 21 1024.0 1023.2 0.0
21/04:40pm 11.7 5.0 3.7 58 3.7 SSE 28 46 15 25 1023.9 1023.0 0.0
21/04:30pm 11.8 5.9 3.8 58 3.7 SSE 24 35 13 19 1023.9 1023.0 0.0
21/04:00pm 11.8 5.6 4.1 59 3.6 SSE 26 41 14 22 1024.0 1023.2 0.0
21/03:30pm 11.8 7.0 4.5 61 3.4 S 19 30 10 16 1024.1 1023.3 0.0
21/03:00pm 12.1 6.2 4.1 58 3.7 SSE 24 43 13 23 1024.1 1023.3 0.0
21/02:30pm 12.0 6.9 4.0 58 3.7 SSE 20 37 11 20 1024.1 1023.3 0.0
21/02:03pm 12.0 5.3 3.8 57 3.8 SSE 28 48 15 26 1024.3 1023.5 0.0
21/02:00pm 12.0 6.1 3.8 57 3.8 SSE 24 41 13 22 1024.3 1023.5 0.0
21/01:30pm 11.9 6.4 3.9 58 3.7 SSE 22 44 12 24 1024.5 1023.7 0.0
21/01:04pm 11.6 5.1 4.6 62 3.3 S 28 46 15 25 1024.9 1024.0 0.0
21/01:00pm 11.6 4.7 4.6 62 3.3 S 30 46 16 25 1024.9 1024.0 0.0
21/12:44pm 11.3 4.8 4.5 63 3.2 S 28 56 15 30 1025.0 1024.1 0.0
21/12:30pm 11.0 5.3 4.9 66 2.9 S 24 44 13 24 1025.5 1024.7 0.0
21/12:00pm 10.8 5.8 4.7 66 2.8 SSE 20 41 11 22 1026.0 1025.2 0.0
21/11:30am 11.1 5.4 4.8 65 3.0 S 24 37 13 20 1026.3 1025.5 0.0
21/11:00am 11.2 5.4 4.2 62 3.2 S 24 43 13 23 1027.0 1026.2 0.0
21/10:30am 11.0 5.1 4.0 62 3.2 SSE 24 41 13 22 1027.0 1026.2 0.0
21/10:00am 10.8 5.7 4.0 63 3.1 S 20 35 11 19 1027.2 1026.4 0.0
21/09:30am 10.2 3.9 3.9 65 2.9 S 26 41 14 22 1027.2 1026.4 0.0
21/09:19am 10.1 3.5 4.0 66 2.8 S 28 46 15 25 1027.3 1026.5 0.0
21/09:00am 10.3 4.0 4.0 65 2.9 SSE 26 48 14 26 1027.5 1026.7 0.0
21/08:53am 10.1 3.0 3.4 63 3.0 S 30 48 16 26 1027.6 1026.8 0.0
21/08:30am 9.9 4.3 3.4 64 2.9 S 22 41 12 22 1027.5 1026.7 0.0
21/08:00am 9.4 2.7 3.4 66 2.7 S 28 44 15 24 1027.6 1026.8 0.0
21/07:30am 9.0 2.3 3.4 68 2.5 S 28 44 15 24 1027.4 1026.6 0.0
21/07:09am 9.1 2.3 3.1 66 2.7 S 28 46 15 25 1027.3 1026.5 0.0
21/07:00am 9.0 2.6 3.2 67 2.6 S 26 39 14 21 1027.2 1026.4 0.0
21/06:30am 8.8 3.5 3.0 67 2.6 S 20 35 11 19 1027.0 1026.2 0.0
21/06:00am 9.0 2.9 3.0 66 2.6 SSE 24 39 13 21 1026.8 1025.9 0.0
21/05:30am 8.9 1.7 3.1 67 2.6 S 30 48 16 26 1026.8 1025.9 0.0
21/05:25am 9.0 1.8 3.2 67 2.6 S 30 48 16 26 1026.8 1025.9 0.0
21/05:00am 8.9 2.9 3.1 67 2.6 SSE 24 39 13 21 1026.6 1025.7 0.0
21/04:57am 8.9 2.1 3.1 67 2.6 SSE 28 46 15 25 1026.7 1025.8 0.0
21/04:30am 9.0 2.6 3.2 67 2.6 S 26 43 14 23 1026.8 1025.9 0.0
21/04:00am 8.7 3.1 3.5 70 2.3 SSE 22 39 12 21 1026.9 1026.0 0.0
21/03:30am 8.4 2.1 3.8 73 2.1 S 26 50 14 27 1027.0 1026.2 0.0
21/03:25am 8.5 1.8 3.8 72 2.1 S 28 50 15 27 1027.1 1026.3 0.0
21/03:00am 8.6 2.6 3.4 70 2.3 S 24 37 13 20 1026.9 1026.0 0.0
21/02:30am 8.6 3.3 3.2 69 2.4 S 20 37 11 20 1027.1 1026.3 0.0
21/02:00am 8.7 3.4 3.1 68 2.5 S 20 33 11 18 1027.2 1026.4 0.0
21/01:30am 8.9 2.1 3.1 67 2.6 S 28 44 15 24 1027.6 1026.8 0.0
21/01:15am 8.9 2.1 2.9 66 2.6 S 28 46 15 25 1027.8 1027.0 0.0
21/01:00am 8.8 3.5 3.0 67 2.5 SSE 20 37 11 20 1027.6 1026.8 0.0
21/12:30am 8.8 2.7 3.0 67 2.6 SSE 24 50 13 27 1027.6 1026.8 0.0
 
Date/Time
EST
Tmp

°C
App
Tmp
°C
Dew
Point
°C
Rel
Hum
%
Delta-T

°C
Wind Press
QNH
hPa
Press
MSL
hPa
Rain
since
9 am
mm
Dir
 
Spd
km/h
Gust
km/h
Spd
kts
Gust
kts
20/11:46pm 8.7 2.0 3.7 71 2.2 SSE 28 52 15 28 1028.1 1027.3 0.0
20/11:30pm 8.8 2.5 3.6 70 2.3 S 26 43 14 23 1028.7 1027.9 0.0
20/11:03pm 8.9 2.1 3.3 68 2.5 S 28 52 15 28 1029.2 1028.4 0.0
20/11:00pm 8.9 2.1 3.3 68 2.5 S 28 44 15 24 1029.2 1028.4 0.0
20/10:30pm 8.9 2.6 3.5 69 2.4 SSE 26 43 14 23 1029.4 1028.6 0.0
20/10:06pm 9.0 2.3 3.4 68 2.5 SSE 28 46 15 25 1029.3 1028.5 0.0
20/10:00pm 9.1 2.8 3.5 68 2.5 SSE 26 46 14 25 1029.2 1028.4 0.0
20/09:30pm 9.2 1.5 3.6 68 2.5 S 33 59 18 32 1029.0 1028.2 0.0
20/09:00pm 9.0 2.3 3.6 69 2.4 S 28 46 15 25 1029.1 1028.3 0.0
20/08:52pm 9.1 2.4 3.7 69 2.4 S 28 46 15 25 1029.1 1028.3 0.0
20/08:30pm 8.9 3.0 3.9 71 2.3 S 24 43 13 23 1029.0 1028.2 0.0
20/08:13pm 8.9 2.3 4.1 72 2.2 S 28 48 15 26 1028.8 1028.0 0.0
20/08:00pm 9.0 3.0 3.6 69 2.4 SSE 24 35 13 19 1028.8 1028.0 0.0
20/07:30pm 9.2 4.2 3.6 68 2.5 SSE 19 33 10 18 1028.4 1027.5 0.0
20/07:00pm 9.7 4.8 4.1 68 2.5 SSE 19 41 10 22 1028.4 1027.5 0.0
20/06:30pm 9.8 4.4 4.4 69 2.5 S 22 35 12 19 1028.0 1027.2 0.0
20/06:00pm 10.1 3.6 4.5 68 2.6 S 28 39 15 21 1028.0 1027.2 0.0
20/05:56pm 10.2 3.6 4.4 67 2.7 S 28 46 15 25 1028.0 1027.2 0.0
20/05:30pm 10.8 4.9 3.8 62 3.2 S 24 39 13 21 1028.1 1027.3 0.0
20/05:00pm 11.6 5.2 3.1 56 3.8 SSE 26 39 14 21 1028.1 1027.3 0.0
20/04:30pm 11.7 4.0 3.5 57 3.8 SSE 33 57 18 31 1027.9 1027.1 0.0
20/04:07pm 11.9 5.2 3.9 58 3.7 SSE 28 50 15 27 1027.5 1026.7 0.0
20/04:00pm 12.1 6.9 3.6 56 3.9 SSE 20 39 11 21 1027.1 1026.3 0.0
20/03:40pm 12.1 5.0 3.6 56 3.9 SSE 30 48 16 26 1027.1 1026.3 0.0
20/03:30pm 12.1 5.0 3.6 56 3.9 SSE 30 44 16 24 1027.1 1026.3 0.0
20/03:00pm 11.9 5.8 4.6 61 3.4 S 26 43 14 23 1027.5 1026.7 0.0
20/02:30pm 12.0 6.4 5.2 63 3.2 SSE 24 43 13 23 1027.4 1026.6 0.0
20/02:08pm 12.0 5.3 5.6 65 3.1 S 30 48 16 26 1027.9 1027.1 0.0
20/02:00pm 11.8 4.6 5.2 64 3.1 S 32 48 17 26 1027.8 1027.0 0.0
20/01:32pm 11.4 5.0 5.3 66 2.9 S 28 46 15 25 1027.8 1027.0 0.0
20/01:30pm 11.7 5.8 5.8 67 2.8 S 26 39 14 21 1027.8 1027.0 0.0
20/01:00pm 11.3 4.4 4.7 64 3.1 S 30 54 16 29 1027.6 1026.8 0.0
20/12:30pm 11.8 4.5 4.5 61 3.4 S 32 57 17 31 1027.9 1027.1 0.0
20/12:09pm 11.7 5.3 5.1 64 3.1 SSE 28 46 15 25 1028.7 1027.9 0.0
20/12:00pm 11.3 6.3 4.7 64 3.1 SSE 20 37 11 20 1029.0 1028.2 0.0
20/11:30am 10.3 4.2 4.7 68 2.6 SSE 26 44 14 24 1029.3 1028.5 0.0
20/11:00am 10.9 4.0 4.6 65 2.9 SSE 30 50 16 27 1029.3 1028.5 0.0
20/10:33am 9.8 3.2 4.0 67 2.6 SSE 28 50 15 27 1029.2 1028.4 0.0
20/10:30am 10.0 3.4 4.4 68 2.6 SSE 28 52 15 28 1029.2 1028.4 0.0
20/10:00am 9.3 1.9 4.1 70 2.3 S 32 54 17 29 1029.3 1028.5 0.0
20/09:30am 9.0 1.6 4.0 71 2.3 S 32 59 17 32 1029.3 1028.5 0.0
20/09:09am 8.1 1.4 3.4 72 2.1 SSE 28 46 15 25 1030.2 1029.4 0.0
20/09:00am 8.2 2.2 3.5 72 2.1 SSE 24 39 13 21 1030.7 1029.9 0.0
20/08:46am 8.1 1.3 3.2 71 2.2 SSE 28 48 15 26 1030.3 1029.5 0.0
20/08:30am 8.1 1.7 3.4 72 2.1 SSE 26 46 14 25 1029.7 1028.9 0.0
20/08:00am 8.1 0.9 3.2 71 2.1 SSE 30 54 16 29 1028.9 1028.1 0.0
20/07:30am 7.8 1.0 3.1 72 2.1 SSE 28 52 15 28 1029.1 1028.3 0.0
20/07:26am 7.8 1.0 2.9 71 2.1 SSE 28 52 15 28 1029.1 1028.3 0.0
20/07:00am 7.8 0.9 2.7 70 2.2 SSE 28 43 15 23 1028.5 1027.7 0.0
20/06:30am 7.5 3.1 2.8 72 2.0 S 15 28 8 15 1028.1 1027.3 0.0
20/06:00am 7.2 1.5 2.7 73 1.9 S 22 35 12 19 1027.8 1027.0 0.0
20/05:30am 7.3 0.4 2.8 73 2.0 S 28 43 15 23 1027.6 1026.8 0.0
20/05:00am 7.0 0.5 2.7 74 1.8 S 26 39 14 21 1027.5 1026.7 0.0
20/04:38am 7.0 0.1 2.7 74 1.9 S 28 57 15 31 1027.7 1026.9 0.0
20/04:30am 7.0 1.7 2.9 75 1.8 S 20 35 11 19 1027.8 1027.0 0.0
20/04:00am 6.8 0.4 3.1 77 1.6 S 26 44 14 24 1028.4 1027.5 0.0
20/03:36am 7.1 0.2 2.4 72 2.0 SSE 28 46 15 25 1027.8 1027.0 0.0
20/03:30am 7.2 -0.1 2.5 72 2.0 SSE 30 44 16 24 1027.9 1027.1 0.0
20/03:05am 7.3 0.4 2.6 72 2.0 SSE 28 46 15 25 1027.8 1027.0 0.0
20/03:00am 7.4 1.3 2.7 72 2.0 SSE 24 43 13 23 1027.8 1027.0 0.0
20/02:30am 7.3 1.2 2.6 72 2.0 S 24 43 13 23 1028.2 1027.4 0.0
20/02:00am 7.4 1.2 2.3 70 2.2 S 24 37 13 20 1028.4 1027.5 0.0
20/01:30am 7.6 2.4 2.3 69 2.3 SSE 19 30 10 16 1028.5 1027.7 0.0
20/01:00am 7.8 2.4 2.5 69 2.3 SSE 20 43 11 23 1028.6 1027.8 0.0
20/12:30am 7.8 2.4 2.5 69 2.3 SSE 20 32 11 17 1028.5 1027.7 0.0
20/12:07am 7.9 1.0 2.6 69 2.3 SSE 28 59 15 32 1028.8 1028.0 0.0
20/12:00am 8.0 3.2 2.7 69 2.3 SSE 17 35 9 19 1028.9 1028.1 0.0
 
Date/Time
EST
Tmp

°C
App
Tmp
°C
Dew
Point
°C
Rel
Hum
%
Delta-T

°C
Wind Press
QNH
hPa
Press
MSL
hPa
Rain
since
9 am
mm
Dir
 
Spd
km/h
Gust
km/h
Spd
kts
Gust
kts
19/11:30pm 8.0 3.6 2.7 69 2.3 SSE 15 28 8 15 1028.5 1027.7 0.0
19/11:00pm 8.2 3.7 2.4 67 2.5 S 15 26 8 14 1028.6 1027.8 0.0
19/10:30pm 8.5 4.1 2.9 68 2.5 SE 15 30 8 16 1028.2 1027.4 0.0
19/10:00pm 8.4 4.0 2.8 68 2.4 S 15 26 8 14 1027.9 1027.1 0.0
19/09:30pm 8.5 4.5 2.9 68 2.5 SSE 13 28 7 15 1028.1 1027.3 0.0
19/09:00pm 8.5 3.4 2.9 68 2.4 SSE 19 33 10 18 1027.7 1026.9 0.0
19/08:30pm 8.8 3.7 3.0 67 2.6 SSE 19 32 10 17 1027.5 1026.7 0.0
19/08:00pm 9.2 3.9 3.0 65 2.7 SSE 20 37 11 20 1027.1 1026.3 0.0
19/07:30pm 9.8 4.7 3.1 63 3.0 SSE 19 32 10 17 1026.6 1025.7 0.0
19/07:00pm 9.9 5.6 3.4 64 2.9 SE 15 30 8 16 1026.0 1025.2 0.0
19/06:30pm 10.3 6.8 3.6 63 3.0 SSE 11 28 6 15 1025.4 1024.5 0.0
19/06:00pm 10.3 6.8 3.3 62 3.1 SSE 11 19 6 10 1025.0 1024.1 0.0
19/05:30pm 10.5 5.8 3.1 60 3.3 SSE 17 24 9 13 1024.5 1023.7 0.0
19/05:00pm 10.6 6.5 4.1 64 3.0 SSE 15 24 8 13 1024.0 1023.2 0.0
19/04:30pm 10.8 7.9 4.7 66 2.8 S 9 15 5 8 1023.7 1022.8 0.0
19/04:00pm 11.0 7.1 5.3 68 2.7 S 15 24 8 13 1023.1 1022.2 0.0
19/03:30pm 10.9 7.6 6.3 73 2.2 SSE 13 20 7 11 1022.6 1021.8 0.0
19/03:00pm 10.4 6.4 5.0 69 2.5 SSE 15 24 8 13 1022.5 1021.7 0.0
19/02:30pm 9.3 4.4 4.3 71 2.3 SSE 19 32 10 17 1022.1 1021.2 0.0
19/02:00pm 9.4 4.9 5.9 79 1.7 S 19 32 10 17 1022.0 1021.1 0.0
19/01:30pm 8.6 4.4 5.5 81 1.4 S 17 30 9 16 1021.9 1021.0 0.0
19/01:00pm 8.1 2.9 5.7 85 1.1 S 22 37 12 20 1021.9 1021.0 0.0
19/12:30pm 8.9 4.1 5.8 81 1.5 SSE 20 35 11 19 1021.5 1020.6 0.0
19/12:00pm 8.7 4.0 6.2 84 1.2 SSE 20 32 11 17 1021.5 1020.6 0.0
19/11:30am 8.7 4.0 6.2 84 1.2 S 20 32 11 17 1021.4 1020.5 0.0
19/11:00am 9.8 5.4 6.7 81 1.5 S 19 32 10 17 1021.1 1020.2 0.0
19/10:30am 14.4 12.3 9.8 74 2.5 NW 11 17 6 9 1020.1 1019.2 0.0
19/10:00am 14.7 12.4 9.1 69 2.9 NNW 11 17 6 9 1020.0 1019.1 0.0
19/09:30am 14.2 11.2 9.4 73 2.5 N 15 22 8 12 1020.0 1019.1 0.0
19/09:00am 12.6 10.2 8.5 76 2.1 N 11 17 6 9 1020.0 1019.1 2.0
19/08:30am 12.7 10.5 7.8 72 2.5 N 9 13 5 7 1019.7 1018.8 2.0
19/08:00am 12.0 9.8 7.7 75 2.2 NNE 9 13 5 7 1019.1 1018.2 2.0
19/07:30am 10.3 8.7 7.9 85 1.2 E 6 9 3 5 1018.8 1017.9 2.0
19/07:00am 8.5 6.8 7.7 95 0.4 E 6 9 3 5 1018.3 1017.4 2.0
19/06:30am 7.4 5.5 6.8 96 0.3 ESE 6 9 3 5 1017.5 1016.5 2.0
19/06:00am 8.1 7.1 7.2 94 0.4 E 2 6 1 3 1017.2 1016.3 2.0
19/05:30am 8.8 7.1 7.6 92 0.6 NE 6 7 3 4 1016.9 1016.0 1.8
19/05:00am 9.8 7.6 7.7 87 1.0 NE 9 13 5 7 1016.6 1015.7 1.8
19/04:30am 10.5 7.9 7.6 82 1.4 NW 11 15 6 8 1016.1 1015.1 1.8
19/04:00am 10.4 10.1 8.8 90 0.8 CALM 0 0 0 0 1015.8 1014.8 1.8
19/03:30am 11.8 9.4 8.8 82 1.5 NW 11 15 6 8 1015.4 1014.5 1.8
19/03:00am 12.5 10.7 9.5 82 1.6 NNW 9 13 5 7 1015.4 1014.5 1.8
19/02:30am 13.3 11.7 11.4 88 1.0 N 11 17 6 9 1015.5 1014.6 1.8
19/02:00am 13.7 12.7 12.4 92 0.7 NNW 9 13 5 7 1015.4 1014.5 1.8
19/01:30am 13.7 13.1 13.4 98 0.2 NW 9 11 5 6 1015.7 1014.7 1.8
19/01:00am 13.8 13.9 12.7 93 0.6 N 4 7 2 4 1015.5 1014.6 1.6
19/12:30am 14.4 13.6 13.0 91 0.8 NNW 9 13 5 7 1015.5 1014.6 1.6
19/12:00am 14.4 15.5 13.6 95 0.5 CALM 0 6 0 3 1015.3 1014.4 1.6
 
Date/Time
EST
Tmp

°C
App
Tmp
°C
Dew
Point
°C
Rel
Hum
%
Delta-T

°C
Wind Press
QNH
hPa
Press
MSL
hPa
Rain
since
9 am
mm
Dir
 
Spd
km/h
Gust
km/h
Spd
kts
Gust
kts
18/11:30pm 14.6 15.8 13.8 95 0.5 CALM 0 0 0 0 1015.1 1014.2 1.6

Latest Capital City Observations: Canberra | Sydney | Melbourne | Brisbane | Adelaide | Perth | Hobart | Darwin

Other Formats:

Comma delimited format used in spreadsheet applications
http://www.bom.gov.au/fwo/IDN60903/IDN60903.94925.axf

JavaScript Object Notation format (JSON) in row-major order
http://www.bom.gov.au/fwo/IDN60903/IDN60903.94925.json